Time;durP1;ratioP1;P1;durP2;ratioP2;P2;SDS_P1;SDS_P2;PMS_P1;PMS_P2;Temp;Humidity;BMP_temperature;BMP_pressure;BME280_temperature;BME280_humidity;BME280_pressure;Samples;Min_cycle;Max_cycle;Signal;HPM_P1;HPM_P2
2022/04/12 00:02:23;;;;;;;;;;;7.20;99.90;;;;;;5019084;28;20346;-81
2022/04/12 00:04:49;;;;;;;;;;;7.20;99.90;;;;;;5016497;28;20001;-81
2022/04/12 00:07:15;;;;;;;;;;;7.20;99.90;;;;;;5022444;28;19928;-81
2022/04/12 00:09:41;;;;;;;;;;;7.20;99.90;;;;;;5019147;28;19920;-81
2022/04/12 00:12:08;;;;;;;;;;;7.20;99.90;;;;;;5035187;28;19925;-81
2022/04/12 00:14:34;;;;;;;;;;;7.10;99.90;;;;;;5033758;28;20284;-81
2022/04/12 00:19:44;;;;;;;;;;;7.00;99.90;;;;;;5029494;28;20006;-80
2022/04/12 00:22:09;;;;;;;;;;;7.00;99.90;;;;;;5016448;28;20350;-81
2022/04/12 00:24:35;;;;;;;;;;;7.00;99.90;;;;;;5033654;28;20405;-81
2022/04/12 00:27:00;;;;;;;;;;;6.90;99.90;;;;;;5035673;28;19921;-81
2022/04/12 00:29:26;;;;;;;;;;;6.90;99.90;;;;;;5035447;28;20576;-81
2022/04/12 00:31:52;;;;;;;;;;;6.90;99.90;;;;;;5005321;28;20015;-81
2022/04/12 00:34:17;;;;;;;;;;;6.80;99.90;;;;;;5019559;28;19920;-81
2022/04/12 00:36:43;;;;;;;;;;;6.80;99.90;;;;;;5031391;28;20600;-81
2022/04/12 00:39:09;;;;;;;;;;;6.80;99.90;;;;;;5013855;28;19920;-81
2022/04/12 00:41:35;;;;;;;;;;;6.80;99.90;;;;;;5030798;28;19999;-81
2022/04/12 00:44:02;;;;;;;;;;;6.70;99.90;;;;;;5031486;28;20437;-81
2022/04/12 00:46:27;;;;;;;;;;;6.70;99.90;;;;;;5017247;28;19964;-81
2022/04/12 00:48:53;;;;;;;;;;;6.70;99.90;;;;;;5001972;28;20030;-81
2022/04/12 00:51:20;;;;;;;;;;;6.60;99.90;;;;;;5034171;28;19920;-81
2022/04/12 00:53:45;;;;;;;;;;;6.60;99.90;;;;;;5014370;28;19928;-81
2022/04/12 00:56:11;;;;;;;;;;;6.60;99.90;;;;;;5018400;28;19921;-81
2022/04/12 00:58:37;;;;;;;;;;;6.50;99.90;;;;;;5033541;28;19950;-81
2022/04/12 01:01:03;;;;;;;;;;;6.50;99.90;;;;;;5008917;28;19966;-81
2022/04/12 01:03:29;;;;;;;;;;;6.50;99.90;;;;;;5033479;28;19924;-81
2022/04/12 01:05:55;;;;;;;;;;;6.40;99.90;;;;;;5018148;28;19921;-81
2022/04/12 01:08:21;;;;;;;;;;;6.40;99.90;;;;;;5045126;28;20278;-81
2022/04/12 01:10:47;;;;;;;;;;;6.40;99.90;;;;;;5036218;28;19927;-81
2022/04/12 01:13:13;;;;;;;;;;;6.40;99.90;;;;;;4996127;28;20396;-81
2022/04/12 01:15:39;;;;;;;;;;;6.40;99.90;;;;;;5034475;28;19921;-81
2022/04/12 01:18:05;;;;;;;;;;;6.40;99.90;;;;;;5016309;28;19921;-81
2022/04/12 01:20:30;;;;;;;;;;;6.30;99.90;;;;;;5028075;28;19921;-82
2022/04/12 01:23:10;;;;;;;;;;;6.30;99.90;;;;;;5017707;28;19995;-80
2022/04/12 01:25:39;;;;;;;;;;;6.30;99.90;;;;;;5034330;28;20003;-81
2022/04/12 01:28:05;;;;;;;;;;;6.30;99.90;;;;;;5033682;28;19927;-81
2022/04/12 01:30:31;;;;;;;;;;;6.20;99.90;;;;;;5032292;28;20425;-83
2022/04/12 01:32:57;;;;;;;;;;;6.20;99.90;;;;;;5020088;28;20009;-81
2022/04/12 01:35:22;;;;;;;;;;;6.20;99.90;;;;;;4995892;28;19935;-81
2022/04/12 01:37:48;;;;;;;;;;;6.10;99.90;;;;;;5025286;28;19974;-80
2022/04/12 01:40:13;;;;;;;;;;;6.10;99.90;;;;;;5025697;28;19979;-81
2022/04/12 01:42:39;;;;;;;;;;;6.10;99.90;;;;;;5007712;28;19921;-81
2022/04/12 01:45:05;;;;;;;;;;;6.00;99.90;;;;;;5001437;28;20285;-81
2022/04/12 01:47:31;;;;;;;;;;;6.10;99.90;;;;;;5023089;28;19943;-81
2022/04/12 01:49:57;;;;;;;;;;;6.00;99.90;;;;;;5034048;28;20365;-82
2022/04/12 01:52:22;;;;;;;;;;;6.00;99.90;;;;;;5024392;28;19991;-81
2022/04/12 01:54:48;;;;;;;;;;;6.00;99.90;;;;;;5033960;28;19924;-81
2022/04/12 01:57:14;;;;;;;;;;;5.90;99.90;;;;;;5017654;28;20262;-80
2022/04/12 01:59:40;;;;;;;;;;;5.90;99.90;;;;;;5033814;28;20000;-81
2022/04/12 02:02:06;;;;;;;;;;;5.90;99.90;;;;;;5017445;28;20026;-80
2022/04/12 02:04:31;;;;;;;;;;;5.90;99.90;;;;;;5027405;28;20393;-80
2022/04/12 02:06:57;;;;;;;;;;;5.80;99.90;;;;;;5033385;28;19925;-81
2022/04/12 02:09:22;;;;;;;;;;;5.80;99.90;;;;;;5031456;28;20007;-81
2022/04/12 02:11:48;;;;;;;;;;;5.90;99.90;;;;;;5029641;28;19971;-81
2022/04/12 02:14:13;;;;;;;;;;;5.80;99.90;;;;;;5026050;28;19921;-82
2022/04/12 02:16:39;;;;;;;;;;;5.80;99.90;;;;;;5033839;28;19956;-80
2022/04/12 02:19:05;;;;;;;;;;;5.90;99.90;;;;;;5017719;28;20003;-81
2022/04/12 02:21:30;;;;;;;;;;;5.80;99.90;;;;;;5016920;28;19921;-81
2022/04/12 02:23:56;;;;;;;;;;;5.80;99.90;;;;;;5012857;28;20278;-81
2022/04/12 02:26:21;;;;;;;;;;;5.80;99.90;;;;;;4992949;28;20312;-80
2022/04/12 02:28:47;;;;;;;;;;;5.80;99.90;;;;;;5017540;28;19924;-82
2022/04/12 02:31:12;;;;;;;;;;;5.80;99.90;;;;;;5003390;28;19920;-81
2022/04/12 02:33:38;;;;;;;;;;;5.70;99.90;;;;;;5017662;28;19920;-83
2022/04/12 02:36:04;;;;;;;;;;;5.80;99.90;;;;;;5032771;28;20003;-81
2022/04/12 02:38:29;;;;;;;;;;;5.70;99.90;;;;;;5020725;28;19925;-80
2022/04/12 02:40:55;;;;;;;;;;;5.70;99.90;;;;;;4990084;28;20638;-81
2022/04/12 02:43:20;;;;;;;;;;;5.70;99.90;;;;;;5042640;28;19921;-81
2022/04/12 02:45:47;;;;;;;;;;;5.70;99.90;;;;;;5025740;28;20639;-80
2022/04/12 02:48:13;;;;;;;;;;;5.60;99.90;;;;;;5004716;28;19967;-80
2022/04/12 02:50:39;;;;;;;;;;;5.60;99.90;;;;;;5010654;28;19968;-81
2022/04/12 02:53:05;;;;;;;;;;;5.60;99.90;;;;;;5030523;28;19920;-80
2022/04/12 02:55:31;;;;;;;;;;;5.60;99.90;;;;;;5029132;28;19936;-83
2022/04/12 02:57:56;;;;;;;;;;;5.60;99.90;;;;;;5029678;28;19928;-80
2022/04/12 03:00:22;;;;;;;;;;;5.60;99.90;;;;;;5028341;28;19968;-81
2022/04/12 03:02:47;;;;;;;;;;;5.60;99.90;;;;;;5021091;28;19921;-81
2022/04/12 03:05:13;;;;;;;;;;;5.50;99.90;;;;;;5011954;28;19921;-80
2022/04/12 03:07:38;;;;;;;;;;;5.50;99.90;;;;;;5009703;28;19921;-80
2022/04/12 03:10:04;;;;;;;;;;;5.50;99.90;;;;;;5019318;28;20379;-79
2022/04/12 03:12:30;;;;;;;;;;;5.60;99.90;;;;;;5026512;28;19927;-80
2022/04/12 03:14:55;;;;;;;;;;;5.60;99.90;;;;;;5033651;28;19932;-80
2022/04/12 03:17:21;;;;;;;;;;;5.60;99.90;;;;;;5021091;28;20358;-80
2022/04/12 03:19:47;;;;;;;;;;;5.40;99.90;;;;;;5037472;28;19974;-80
2022/04/12 03:22:12;;;;;;;;;;;5.40;99.90;;;;;;5019363;28;19947;-80
2022/04/12 03:24:38;;;;;;;;;;;5.50;99.90;;;;;;5021135;28;19921;-80
2022/04/12 03:27:04;;;;;;;;;;;5.50;99.90;;;;;;5035785;28;20531;-80
2022/04/12 03:29:30;;;;;;;;;;;5.50;99.90;;;;;;5036164;28;19921;-80
2022/04/12 03:31:55;;;;;;;;;;;5.40;99.90;;;;;;5019736;28;19924;-80
2022/04/12 03:34:21;;;;;;;;;;;5.40;99.90;;;;;;5019505;28;19975;-80
2022/04/12 03:36:47;;;;;;;;;;;5.40;99.90;;;;;;5031523;28;20051;-81
2022/04/12 03:39:17;;;;;;;;;;;5.50;99.90;;;;;;5019350;28;19920;-81
2022/04/12 03:41:46;;;;;;;;;;;5.40;99.90;;;;;;5037204;28;19927;-80
2022/04/12 03:44:13;;;;;;;;;;;5.40;99.90;;;;;;5018834;28;19932;-80
2022/04/12 03:46:38;;;;;;;;;;;5.50;99.90;;;;;;5029944;28;19920;-80
2022/04/12 03:49:04;;;;;;;;;;;5.40;99.90;;;;;;5033015;28;19927;-80
2022/04/12 03:51:30;;;;;;;;;;;5.50;99.90;;;;;;5016309;28;19921;-80
2022/04/12 03:53:56;;;;;;;;;;;5.50;99.90;;;;;;5008134;28;19924;-80
2022/04/12 03:56:21;;;;;;;;;;;5.60;99.90;;;;;;5035629;28;19928;-80
2022/04/12 03:58:47;;;;;;;;;;;5.60;99.90;;;;;;5032779;28;19931;-82
2022/04/12 04:01:12;;;;;;;;;;;5.60;99.90;;;;;;5036077;28;19921;-80
2022/04/12 04:03:38;;;;;;;;;;;5.60;99.90;;;;;;5034557;28;19957;-80
2022/04/12 04:06:04;;;;;;;;;;;5.60;99.90;;;;;;5035481;28;19920;-80
2022/04/12 04:08:29;;;;;;;;;;;5.60;99.90;;;;;;5020215;28;20352;-80
2022/04/12 04:10:55;;;;;;;;;;;5.60;99.90;;;;;;5033269;28;19920;-80
2022/04/12 04:13:20;;;;;;;;;;;5.60;99.90;;;;;;5000986;28;20000;-81
2022/04/12 04:15:46;;;;;;;;;;;5.60;99.90;;;;;;5031917;28;20364;-80
2022/04/12 04:18:13;;;;;;;;;;;5.60;99.90;;;;;;5041947;28;20289;-80
2022/04/12 04:20:39;;;;;;;;;;;5.60;99.90;;;;;;5035479;28;19935;-80
2022/04/12 04:23:05;;;;;;;;;;;5.60;99.90;;;;;;5024685;28;19929;-80
2022/04/12 04:25:30;;;;;;;;;;;5.60;99.90;;;;;;5019436;28;19921;-80
2022/04/12 04:27:56;;;;;;;;;;;5.70;99.90;;;;;;5032703;28;19932;-81
2022/04/12 04:30:22;;;;;;;;;;;5.70;99.90;;;;;;5036006;28;19995;-79
2022/04/12 04:32:48;;;;;;;;;;;5.70;99.90;;;;;;5019565;28;20027;-80
2022/04/12 04:35:14;;;;;;;;;;;5.70;99.90;;;;;;5018615;28;20593;-80
2022/04/12 04:37:46;;;;;;;;;;;5.60;99.90;;;;;;5033757;28;19971;-80
2022/04/12 04:40:16;;;;;;;;;;;5.60;99.90;;;;;;5035405;28;19928;-80
2022/04/12 04:42:44;;;;;;;;;;;5.60;99.90;;;;;;5048664;28;19921;-80
2022/04/12 04:45:13;;;;;;;;;;;5.60;99.90;;;;;;5026710;28;19987;-80
2022/04/12 04:47:52;;;;;;;;;;;5.60;99.90;;;;;;5018696;28;20008;-80
2022/04/12 04:50:19;;;;;;;;;;;5.60;99.90;;;;;;5033670;28;20600;-80
2022/04/12 04:52:44;;;;;;;;;;;5.60;99.90;;;;;;5026789;28;19975;-80
2022/04/12 04:55:10;;;;;;;;;;;5.60;99.90;;;;;;5026088;28;19929;-80
2022/04/12 04:57:40;;;;;;;;;;;5.60;99.90;;;;;;5002068;28;20309;-80
2022/04/12 05:00:06;;;;;;;;;;;5.60;99.90;;;;;;5018723;28;20388;-80
2022/04/12 05:02:32;;;;;;;;;;;5.60;99.90;;;;;;5016212;28;19932;-80
2022/04/12 05:04:58;;;;;;;;;;;5.60;99.90;;;;;;4997482;28;19920;-81
2022/04/12 05:07:24;;;;;;;;;;;5.60;99.90;;;;;;5035585;28;19972;-80
2022/04/12 05:09:51;;;;;;;;;;;5.60;99.90;;;;;;5017582;28;20011;-81
2022/04/12 05:12:16;;;;;;;;;;;5.60;99.90;;;;;;5018551;28;19921;-81
2022/04/12 05:14:42;;;;;;;;;;;5.70;99.90;;;;;;5030905;28;19931;-81
2022/04/12 05:17:07;;;;;;;;;;;5.70;99.90;;;;;;5026145;28;20014;-81
2022/04/12 05:19:33;;;;;;;;;;;5.70;99.90;;;;;;5033366;28;19925;-81
2022/04/12 05:21:58;;;;;;;;;;;5.70;99.90;;;;;;5034502;28;19921;-81
2022/04/12 05:24:24;;;;;;;;;;;5.90;99.90;;;;;;5018958;28;20332;-80
2022/04/12 05:26:50;;;;;;;;;;;5.80;99.90;;;;;;5034243;28;19928;-80
2022/04/12 05:29:16;;;;;;;;;;;5.80;99.90;;;;;;5016893;28;20440;-81
2022/04/12 05:31:41;;;;;;;;;;;5.80;99.90;;;;;;5017929;28;19962;-81
2022/04/12 05:34:07;;;;;;;;;;;5.90;99.90;;;;;;5050668;28;19928;-82
2022/04/12 05:36:32;;;;;;;;;;;5.80;99.90;;;;;;5032463;28;19927;-81
2022/04/12 05:38:58;;;;;;;;;;;6.00;99.90;;;;;;5034228;28;19927;-81
2022/04/12 05:41:24;;;;;;;;;;;5.90;99.90;;;;;;5034047;28;19921;-81
2022/04/12 05:43:49;;;;;;;;;;;6.00;99.90;;;;;;5032762;28;19929;-82
2022/04/12 05:46:15;;;;;;;;;;;6.00;99.90;;;;;;5005235;28;19929;-82
2022/04/12 05:48:40;;;;;;;;;;;6.00;99.90;;;;;;5030513;28;19925;-81
2022/04/12 05:51:06;;;;;;;;;;;6.10;99.90;;;;;;5014795;28;19986;-81
2022/04/12 05:53:32;;;;;;;;;;;6.10;99.90;;;;;;5032633;28;19967;-81
2022/04/12 05:55:58;;;;;;;;;;;6.10;99.90;;;;;;5015976;28;20438;-80
2022/04/12 05:58:24;;;;;;;;;;;6.20;99.90;;;;;;5033194;28;19928;-80
2022/04/12 06:00:50;;;;;;;;;;;6.30;99.90;;;;;;5040833;28;19971;-83
2022/04/12 06:03:16;;;;;;;;;;;6.30;99.90;;;;;;5012076;28;19972;-83
2022/04/12 06:05:41;;;;;;;;;;;6.30;99.90;;;;;;5004113;28;19924;-80
2022/04/12 06:08:07;;;;;;;;;;;6.30;99.90;;;;;;5046762;28;19932;-79
2022/04/12 06:10:33;;;;;;;;;;;6.40;99.90;;;;;;5023736;28;19925;-80
2022/04/12 06:12:59;;;;;;;;;;;6.40;99.90;;;;;;5051854;28;19921;-78
2022/04/12 06:15:25;;;;;;;;;;;6.50;99.90;;;;;;5033155;28;19921;-79
2022/04/12 06:17:51;;;;;;;;;;;6.60;99.90;;;;;;5025127;28;19921;-80
2022/04/12 06:20:17;;;;;;;;;;;6.60;99.90;;;;;;5025043;28;19925;-80
2022/04/12 06:22:43;;;;;;;;;;;6.60;99.90;;;;;;5025188;28;20019;-80
2022/04/12 06:25:11;;;;;;;;;;;6.70;99.90;;;;;;5011701;28;20067;-80
2022/04/12 06:27:38;;;;;;;;;;;6.70;99.90;;;;;;5027870;28;20017;-80
2022/04/12 06:30:06;;;;;;;;;;;6.70;99.90;;;;;;5032895;28;19924;-80
2022/04/12 06:32:32;;;;;;;;;;;6.70;99.90;;;;;;5034087;28;19928;-80
2022/04/12 06:34:58;;;;;;;;;;;6.70;99.90;;;;;;5032692;28;19921;-80
2022/04/12 06:37:24;;;;;;;;;;;6.80;99.90;;;;;;5031245;28;19925;-79
2022/04/12 06:39:50;;;;;;;;;;;6.70;99.90;;;;;;5025973;28;20369;-79
2022/04/12 06:42:16;;;;;;;;;;;6.80;99.90;;;;;;5035038;28;19931;-79
2022/04/12 06:44:41;;;;;;;;;;;6.80;99.90;;;;;;5027727;28;19924;-81
2022/04/12 06:47:07;;;;;;;;;;;6.80;99.90;;;;;;5052361;28;20375;-81
2022/04/12 06:49:33;;;;;;;;;;;6.80;99.90;;;;;;5054773;28;19920;-79
2022/04/12 06:51:59;;;;;;;;;;;6.80;99.90;;;;;;5054945;28;19986;-81
2022/04/12 06:54:28;;;;;;;;;;;6.90;99.90;;;;;;5037259;28;19924;-78
2022/04/12 06:56:53;;;;;;;;;;;6.90;99.90;;;;;;5037171;28;20309;-79
2022/04/12 06:59:20;;;;;;;;;;;6.90;99.90;;;;;;5036707;28;19975;-81
2022/04/12 07:01:46;;;;;;;;;;;7.00;99.90;;;;;;5037361;28;19982;-78
2022/04/12 07:04:11;;;;;;;;;;;7.10;99.90;;;;;;5035847;28;19928;-78
2022/04/12 07:06:37;;;;;;;;;;;7.20;99.90;;;;;;5037230;28;20321;-79
2022/04/12 07:09:05;;;;;;;;;;;7.40;99.90;;;;;;5038017;28;19921;-79
2022/04/12 07:11:31;;;;;;;;;;;7.60;99.90;;;;;;5036188;28;19921;-79
2022/04/12 07:13:56;;;;;;;;;;;7.70;99.90;;;;;;5037171;28;20003;-79
2022/04/12 07:16:22;;;;;;;;;;;7.90;99.90;;;;;;5036626;28;19966;-79
2022/04/12 07:18:47;;;;;;;;;;;8.10;99.90;;;;;;5034986;28;19929;-78
2022/04/12 07:21:13;;;;;;;;;;;8.20;99.90;;;;;;5037028;28;19989;-79
2022/04/12 07:23:39;;;;;;;;;;;8.20;99.90;;;;;;5028483;28;20362;-80
2022/04/12 07:26:05;;;;;;;;;;;8.30;99.90;;;;;;5054569;28;19986;-79
2022/04/12 07:28:30;;;;;;;;;;;8.30;99.90;;;;;;5020946;28;19964;-79
2022/04/12 07:30:56;;;;;;;;;;;8.30;99.90;;;;;;5036852;28;20027;-79
2022/04/12 07:33:22;;;;;;;;;;;8.30;99.90;;;;;;5019399;28;19921;-79
2022/04/12 07:35:47;;;;;;;;;;;8.40;99.90;;;;;;5053917;28;19927;-82
2022/04/12 07:38:13;;;;;;;;;;;8.50;99.90;;;;;;5035345;28;19920;-79
2022/04/12 07:40:39;;;;;;;;;;;8.70;99.90;;;;;;5036495;28;19974;-78
2022/04/12 07:43:04;;;;;;;;;;;8.80;99.90;;;;;;5054074;28;19974;-79
2022/04/12 07:45:30;;;;;;;;;;;8.90;99.90;;;;;;5010283;28;19920;-81
2022/04/12 07:47:55;;;;;;;;;;;9.00;99.90;;;;;;5010505;28;19986;-79
2022/04/12 07:50:21;;;;;;;;;;;9.10;99.90;;;;;;5036327;28;19934;-79
2022/04/12 07:52:47;;;;;;;;;;;9.20;99.90;;;;;;5021005;28;19924;-81
2022/04/12 07:55:12;;;;;;;;;;;9.30;99.90;;;;;;5033440;28;19968;-83
2022/04/12 07:57:38;;;;;;;;;;;9.50;99.90;;;;;;5030302;28;19925;-79
2022/04/12 08:00:04;;;;;;;;;;;9.60;99.90;;;;;;5017419;28;19921;-80
2022/04/12 08:02:30;;;;;;;;;;;9.70;99.90;;;;;;5013061;28;19931;-80
2022/04/12 08:04:55;;;;;;;;;;;9.80;99.90;;;;;;5025635;28;19928;-82
2022/04/12 08:07:21;;;;;;;;;;;9.90;99.90;;;;;;5030140;28;19921;-77
2022/04/12 08:09:46;;;;;;;;;;;10.00;99.90;;;;;;5007930;28;19925;-80
2022/04/12 08:12:12;;;;;;;;;;;10.20;99.90;;;;;;5027477;28;19932;-80
2022/04/12 08:14:38;;;;;;;;;;;10.20;99.90;;;;;;5037868;28;19928;-76
2022/04/12 08:17:03;;;;;;;;;;;10.30;99.90;;;;;;5032017;28;19943;-77
2022/04/12 08:19:29;;;;;;;;;;;10.40;99.90;;;;;;5017613;28;20395;-78
2022/04/12 08:21:54;;;;;;;;;;;10.50;99.90;;;;;;5034480;28;19921;-77
2022/04/12 08:24:21;;;;;;;;;;;10.60;99.90;;;;;;5020559;28;19960;-80
2022/04/12 08:26:47;;;;;;;;;;;10.70;99.90;;;;;;5020249;28;20298;-80
2022/04/12 08:29:13;;;;;;;;;;;10.80;99.90;;;;;;5035848;28;19927;-83
2022/04/12 08:31:39;;;;;;;;;;;10.90;99.90;;;;;;5034817;28;19990;-82
2022/04/12 08:34:05;;;;;;;;;;;11.00;99.90;;;;;;5035897;28;20003;-82
2022/04/12 08:36:31;;;;;;;;;;;11.20;99.90;;;;;;5016675;28;20031;-83
2022/04/12 08:38:56;;;;;;;;;;;11.20;99.90;;;;;;5035324;28;20676;-83
2022/04/12 08:41:23;;;;;;;;;;;11.40;99.90;;;;;;4991629;28;20000;-83
2022/04/12 08:43:53;;;;;;;;;;;11.40;99.90;;;;;;5014652;28;19968;-83
2022/04/12 08:46:19;;;;;;;;;;;11.40;99.90;;;;;;5034233;28;19947;-82
2022/04/12 08:48:45;;;;;;;;;;;11.60;99.90;;;;;;5035338;28;19928;-84
2022/04/12 08:51:11;;;;;;;;;;;11.60;99.90;;;;;;5032232;28;19920;-83
2022/04/12 08:53:36;;;;;;;;;;;11.70;99.90;;;;;;5033926;28;20042;-83
2022/04/12 08:56:02;;;;;;;;;;;11.80;99.90;;;;;;5013927;28;19928;-82
2022/04/12 08:58:28;;;;;;;;;;;11.90;99.90;;;;;;5018348;28;20387;-82
2022/04/12 09:00:54;;;;;;;;;;;11.90;99.90;;;;;;5019120;28;19921;-86
2022/04/12 09:03:19;;;;;;;;;;;12.00;99.90;;;;;;5018036;28;20392;-84
2022/04/12 09:05:45;;;;;;;;;;;12.10;99.90;;;;;;5005268;28;19921;-87
2022/04/12 09:08:24;;;;;;;;;;;12.10;99.90;;;;;;5013592;28;19927;-79
2022/04/12 09:10:57;;;;;;;;;;;12.30;99.90;;;;;;4997644;28;20373;-81
2022/04/12 09:13:23;;;;;;;;;;;12.40;99.90;;;;;;5004590;28;19921;-81
2022/04/12 09:15:49;;;;;;;;;;;12.30;99.90;;;;;;5025577;28;19967;-82
2022/04/12 09:18:29;;;;;;;;;;;12.30;99.90;;;;;;5032814;28;19921;-82
2022/04/12 09:20:56;;;;;;;;;;;12.40;99.90;;;;;;5027590;28;19921;-81
2022/04/12 09:23:22;;;;;;;;;;;12.60;99.90;;;;;;4997201;28;19925;-82
2022/04/12 09:25:54;;;;;;;;;;;12.80;99.90;;;;;;5025052;28;19928;-81
2022/04/12 09:28:20;;;;;;;;;;;12.90;99.90;;;;;;5012526;28;19920;-81
2022/04/12 09:30:46;;;;;;;;;;;13.00;99.90;;;;;;5025425;28;19978;-80
2022/04/12 09:33:12;;;;;;;;;;;13.10;99.90;;;;;;5011444;28;19931;-80
2022/04/12 09:35:38;;;;;;;;;;;13.20;99.90;;;;;;5023196;28;19945;-81
2022/04/12 09:38:04;;;;;;;;;;;13.30;99.90;;;;;;5026808;28;19920;-80
2022/04/12 09:40:29;;;;;;;;;;;13.50;99.90;;;;;;5028299;28;19921;-80
2022/04/12 09:43:00;;;;;;;;;;;13.60;99.90;;;;;;5007789;28;19932;-80
2022/04/12 09:45:27;;;;;;;;;;;13.60;99.90;;;;;;5026462;28;19932;-82
2022/04/12 09:48:11;;;;;;;;;;;13.70;99.90;;;;;;5016894;28;20280;-81
2022/04/12 09:50:37;;;;;;;;;;;13.80;99.90;;;;;;5033293;28;20463;-82
2022/04/12 09:53:03;;;;;;;;;;;13.90;99.90;;;;;;5017282;28;19950;-83
2022/04/12 09:55:36;;;;;;;;;;;13.90;99.90;;;;;;5015748;28;19924;-82
2022/04/12 09:58:03;;;;;;;;;;;14.00;99.90;;;;;;5032752;28;19932;-82
2022/04/12 10:00:32;;;;;;;;;;;14.10;99.90;;;;;;5032316;28;19931;-82
2022/04/12 10:03:05;;;;;;;;;;;14.20;99.90;;;;;;5017054;28;19925;-81
2022/04/12 10:05:31;;;;;;;;;;;14.30;99.90;;;;;;5016396;28;19979;-81
2022/04/12 10:08:00;;;;;;;;;;;14.40;99.90;;;;;;5031442;28;19978;-80
2022/04/12 10:10:25;;;;;;;;;;;14.50;99.90;;;;;;5016952;28;19927;-77
2022/04/12 10:12:55;;;;;;;;;;;14.70;99.90;;;;;;5033961;28;19942;-80
2022/04/12 10:15:21;;;;;;;;;;;14.80;99.90;;;;;;5033756;28;19994;-80
2022/04/12 10:17:48;;;;;;;;;;;14.90;99.90;;;;;;5032641;28;20316;-80
2022/04/12 10:20:14;;;;;;;;;;;15.10;99.90;;;;;;5028187;28;19921;-78
2022/04/12 10:22:40;;;;;;;;;;;15.30;99.90;;;;;;5033607;28;19927;-78
2022/04/12 10:25:07;;;;;;;;;;;15.50;99.90;;;;;;5015494;28;19974;-79
2022/04/12 10:27:32;;;;;;;;;;;15.70;99.90;;;;;;4994553;28;20014;-79
2022/04/12 10:30:22;;;;;;;;;;;15.70;99.90;;;;;;5027750;28;19971;-79
2022/04/12 10:33:03;;;;;;;;;;;15.90;99.90;;;;;;5008128;28;19934;-79
2022/04/12 10:35:49;;;;;;;;;;;16.00;99.90;;;;;;5049275;28;20395;-80
2022/04/12 10:38:16;;;;;;;;;;;16.20;99.90;;;;;;5033618;28;19932;-81
2022/04/12 10:40:42;;;;;;;;;;;16.30;99.90;;;;;;5028200;28;19935;-80
2022/04/12 10:43:10;;;;;;;;;;;16.40;99.90;;;;;;5023689;28;20414;-81
2022/04/12 10:45:37;;;;;;;;;;;16.40;99.90;;;;;;5024221;28;19921;-81
2022/04/12 10:48:03;;;;;;;;;;;16.60;99.90;;;;;;5027384;28;19932;-80
2022/04/12 10:50:39;;;;;;;;;;;16.70;99.90;;;;;;5010942;28;19921;-80
2022/04/12 10:53:05;;;;;;;;;;;16.80;99.90;;;;;;5013132;28;19925;-82
2022/04/12 10:55:36;;;;;;;;;;;16.90;99.90;;;;;;5014728;28;19929;-78
2022/04/12 10:58:11;;;;;;;;;;;17.10;99.90;;;;;;5009271;28;19924;-79
2022/04/12 11:00:37;;;;;;;;;;;17.30;99.90;;;;;;5022411;28;20484;-79
2022/04/12 11:03:02;;;;;;;;;;;17.40;99.90;;;;;;5031688;28;19947;-78
2022/04/12 11:05:38;;;;;;;;;;;17.60;99.90;;;;;;5027466;28;20382;-79
2022/04/12 11:08:13;;;;;;;;;;;17.70;99.90;;;;;;5013652;28;20004;-79
2022/04/12 11:10:39;;;;;;;;;;;17.80;99.90;;;;;;5017088;28;19947;-79
2022/04/12 11:13:10;;;;;;;;;;;18.10;99.90;;;;;;5017112;28;19921;-78
2022/04/12 11:15:37;;;;;;;;;;;18.30;99.90;;;;;;5021199;28;20016;-78
2022/04/12 11:18:11;;;;;;;;;;;18.50;99.80;;;;;;5026822;28;20387;-78
2022/04/12 11:20:38;;;;;;;;;;;18.60;99.80;;;;;;5008580;28;19925;-78
2022/04/12 11:23:09;;;;;;;;;;;18.70;98.60;;;;;;5015477;28;19963;-78
2022/04/12 11:25:44;;;;;;;;;;;18.70;98.60;;;;;;5018653;28;20000;-78
2022/04/12 11:28:12;;;;;;;;;;;18.70;99.10;;;;;;5029477;28;19925;-79
2022/04/12 11:30:38;;;;;;;;;;;18.80;97.20;;;;;;5029366;28;19921;-78
2022/04/12 11:33:04;;;;;;;;;;;18.70;97.80;;;;;;5026112;28;19975;-77
2022/04/12 11:35:30;;;;;;;;;;;18.70;97.50;;;;;;4998514;28;20425;-80
2022/04/12 11:37:56;;;;;;;;;;;18.70;97.90;;;;;;5031872;28;20352;-79
2022/04/12 11:40:24;;;;;;;;;;;18.70;98.10;;;;;;5010389;28;19925;-78
2022/04/12 11:42:49;;;;;;;;;;;18.90;98.30;;;;;;5022429;28;19921;-77
2022/04/12 11:45:15;;;;;;;;;;;19.10;97.90;;;;;;5032063;28;20323;-78
2022/04/12 11:47:44;;;;;;;;;;;19.10;98.30;;;;;;5033518;28;19921;-78
2022/04/12 11:50:17;;;;;;;;;;;19.20;97.70;;;;;;5036764;28;19927;-79
2022/04/12 11:52:46;;;;;;;;;;;19.30;97.40;;;;;;5050003;28;19932;-81
2022/04/12 11:55:12;;;;;;;;;;;19.40;97.90;;;;;;5030040;28;19960;-81
2022/04/12 11:57:38;;;;;;;;;;;19.50;96.80;;;;;;5011618;28;19925;-79
2022/04/12 12:00:04;;;;;;;;;;;19.60;96.60;;;;;;5036453;28;19944;-79
2022/04/12 12:02:31;;;;;;;;;;;19.70;95.80;;;;;;5028728;28;20365;-81
2022/04/12 12:04:59;;;;;;;;;;;19.70;96.00;;;;;;5035940;28;19933;-79
2022/04/12 12:07:26;;;;;;;;;;;19.50;95.70;;;;;;5014479;28;20676;-79
2022/04/12 12:10:02;;;;;;;;;;;19.50;96.30;;;;;;5014491;28;20678;-80
2022/04/12 12:12:34;;;;;;;;;;;19.40;94.70;;;;;;5031733;28;20499;-78
2022/04/12 12:15:16;;;;;;;;;;;19.40;96.50;;;;;;5023156;28;19929;-79
2022/04/12 12:17:44;;;;;;;;;;;19.30;95.00;;;;;;5030516;28;20003;-79
2022/04/12 12:20:09;;;;;;;;;;;19.20;94.90;;;;;;5030716;28;19920;-79
2022/04/12 12:22:38;;;;;;;;;;;19.10;96.00;;;;;;5011107;28;19921;-83
2022/04/12 12:25:04;;;;;;;;;;;19.10;96.50;;;;;;5026815;28;19928;-82
2022/04/12 12:27:31;;;;;;;;;;;19.10;95.60;;;;;;5037232;28;19920;-80
2022/04/12 12:30:06;;;;;;;;;;;19.10;96.40;;;;;;5036853;28;19924;-81
2022/04/12 12:32:32;;;;;;;;;;;19.00;96.40;;;;;;5028984;28;20022;-81
2022/04/12 12:35:02;;;;;;;;;;;18.90;96.30;;;;;;5020443;28;19921;-80
2022/04/12 12:37:28;;;;;;;;;;;18.80;96.80;;;;;;5012357;28;19925;-80
2022/04/12 12:39:54;;;;;;;;;;;18.60;97.10;;;;;;5033554;28;20444;-80
2022/04/12 12:42:21;;;;;;;;;;;18.50;97.70;;;;;;5005683;28;19921;-80
2022/04/12 12:44:46;;;;;;;;;;;18.30;97.40;;;;;;5036407;28;19932;-80
2022/04/12 12:47:12;;;;;;;;;;;18.30;98.30;;;;;;5036356;28;19924;-82
2022/04/12 12:49:39;;;;;;;;;;;18.30;99.40;;;;;;5036214;28;19920;-80
2022/04/12 12:52:09;;;;;;;;;;;18.30;99.90;;;;;;5019710;28;19920;-81
2022/04/12 12:54:35;;;;;;;;;;;18.30;98.70;;;;;;5019664;28;19928;-80
2022/04/12 12:57:01;;;;;;;;;;;18.30;99.90;;;;;;5020039;28;20008;-79
2022/04/12 12:59:28;;;;;;;;;;;18.20;98.40;;;;;;5019390;28;20290;-82
2022/04/12 13:01:54;;;;;;;;;;;18.20;99.00;;;;;;5034779;28;20727;-82
2022/04/12 13:04:26;;;;;;;;;;;18.20;98.80;;;;;;5010772;28;19921;-80
2022/04/12 13:07:04;;;;;;;;;;;18.10;98.90;;;;;;5035162;28;19920;-82
2022/04/12 13:09:31;;;;;;;;;;;18.10;99.10;;;;;;5019602;28;20373;-81
2022/04/12 13:11:57;;;;;;;;;;;18.30;99.90;;;;;;5035381;28;19925;-81
2022/04/12 13:14:23;;;;;;;;;;;18.40;99.90;;;;;;4999439;28;19928;-82
2022/04/12 13:16:49;;;;;;;;;;;18.70;99.90;;;;;;5028127;28;19921;-82
2022/04/12 13:19:22;;;;;;;;;;;19.00;99.90;;;;;;5035166;28;19920;-81
2022/04/12 13:21:48;;;;;;;;;;;19.50;99.90;;;;;;5034751;28;19972;-82
2022/04/12 13:24:14;;;;;;;;;;;20.00;99.20;;;;;;5021665;28;19968;-82
2022/04/12 13:26:39;;;;;;;;;;;20.60;98.10;;;;;;5020034;28;19946;-83
2022/04/12 13:29:05;;;;;;;;;;;21.30;96.00;;;;;;5029656;28;19921;-83
2022/04/12 13:31:30;;;;;;;;;;;21.90;94.80;;;;;;5034421;28;19928;-80
2022/04/12 13:33:56;;;;;;;;;;;22.20;92.90;;;;;;5028077;28;19933;-81
2022/04/12 13:36:21;;;;;;;;;;;22.70;90.40;;;;;;5016123;28;19921;-80
2022/04/12 13:38:47;;;;;;;;;;;23.10;88.90;;;;;;5034825;28;19971;-80
2022/04/12 13:41:12;;;;;;;;;;;23.50;88.60;;;;;;5034906;28;20296;-81
2022/04/12 13:43:38;;;;;;;;;;;23.80;83.30;;;;;;5019151;28;19921;-85
2022/04/12 13:46:04;;;;;;;;;;;24.10;78.40;;;;;;5015673;28;19921;-82
2022/04/12 13:48:32;;;;;;;;;;;24.40;76.00;;;;;;5032464;28;19925;-80
2022/04/12 13:50:57;;;;;;;;;;;24.50;79.20;;;;;;5017352;28;19970;-82
2022/04/12 13:53:24;;;;;;;;;;;24.50;74.90;;;;;;5033828;28;19925;-82
2022/04/12 13:55:49;;;;;;;;;;;24.50;75.30;;;;;;5033171;28;19920;-83
2022/04/12 13:58:15;;;;;;;;;;;24.50;73.00;;;;;;4998354;28;19928;-83
2022/04/12 14:00:40;;;;;;;;;;;24.70;69.20;;;;;;5030168;28;19920;-83
2022/04/12 14:03:06;;;;;;;;;;;24.00;68.10;;;;;;5034777;28;19931;-83
2022/04/12 14:05:32;;;;;;;;;;;23.60;67.40;;;;;;5017743;28;20007;-84
2022/04/12 14:08:00;;;;;;;;;;;23.20;68.60;;;;;;5034604;28;19924;-81
2022/04/12 14:10:26;;;;;;;;;;;22.90;69.00;;;;;;5034310;28;20373;-82
2022/04/12 14:12:51;;;;;;;;;;;22.70;70.90;;;;;;5016617;28;19968;-83
2022/04/12 14:15:17;;;;;;;;;;;22.20;71.90;;;;;;5031763;28;19925;-81
2022/04/12 14:17:42;;;;;;;;;;;22.00;74.70;;;;;;5013454;28;19929;-82
2022/04/12 14:20:08;;;;;;;;;;;22.20;76.10;;;;;;5030616;28;19921;-81
2022/04/12 14:22:35;;;;;;;;;;;22.30;76.60;;;;;;5015606;28;19921;-83
2022/04/12 14:25:00;;;;;;;;;;;22.40;75.60;;;;;;5011998;28;19975;-83